ENKJ weather

Kjeller Airport
Kjeller, Akershus, Norway

Public forecast

Using degrees Celsius for public forecast. Weather courtesy of forecast.io.

METAR (pilot weather report)

Closest report is Oslo, Fornebu Airport, 13.4 nm (24.7 km) WSW. Retrieved 2019/05/26 04:20 UTC (5 minutes ago):

ENFB 260420Z AUTO 01020KT 9999NDV SCT023/// 07/03 Q1006 W///S4

TAF (pilot weather forecast)

Forecast is more than 12 hours old.

Closest forecast is Oslo Gardermoen Airport, 13.6 nm (25.2 km) N. Retrieved 2019/05/25 00:57 UTC (1 day ago):

TAF ENGM 252300Z 2600/2624 33008KT 9999 FEW030 BKN060 PROB30 TEMPO 2600/2603 SHRA FEW030CB BKN040 TEMPO 2606/2611 35015G28KT RA BKN014